Time,TemperatureF,DewpointF,PressureIn,WindDirection,WindDirectionDegrees,WindSpeedMPH,WindSpeedGustMPH,Humidity,HourlyPrecipIn,Conditions,Clouds,dailyrainin,SoftwareType,DateUTC
2013-07-17 08:52:00,85.0,75.0,30.29,North,-999,-999.0,-999.0,71,-99.99,,,-99.99,,2013-07-17 13:52:00,
2013-07-17 09:02:00,87.0,75.0,30.29,NE,44,0.0,-999.0,68,-99.99,,,-99.99,,2013-07-17 14:02:00,
2013-07-17 09:11:00,87.0,74.0,30.29,NNE,25,0.0,-999.0,66,-99.99,,,-99.99,,2013-07-17 14:11:00,
2013-07-17 09:22:00,87.0,74.0,30.28,NNE,17,0.0,-999.0,66,-99.99,,,-99.99,,2013-07-17 14:22:00,
2013-07-17 09:32:00,88.0,74.0,30.29,North,5,0.0,-999.0,63,-99.99,,,-99.99,,2013-07-17 14:32:00,
2013-07-17 09:43:00,88.0,74.0,30.28,NNW,327,0.0,-999.0,63,-99.99,,,-99.99,,2013-07-17 14:43:00,
2013-07-17 09:52:00,87.0,74.0,30.28,North,360,0.0,-999.0,65,-99.99,,,-99.99,,2013-07-17 14:52:00,
2013-07-17 10:01:00,88.0,74.0,30.28,NNW,331,0.0,-999.0,64,-99.99,,,-99.99,,2013-07-17 15:01:00,
2013-07-17 10:12:00,88.0,74.0,30.28,NNE,28,0.0,-999.0,63,-99.99,,,-99.99,,2013-07-17 15:12:00,
2013-07-17 10:22:00,89.0,75.0,30.28,North,11,0.0,-999.0,63,-99.99,,,-99.99,,2013-07-17 15:22:00,
2013-07-17 10:32:00,90.0,75.0,30.27,North,5,0.0,-999.0,62,-99.99,,,-99.99,,2013-07-17 15:32:00,
2013-07-17 10:42:00,90.0,75.0,30.27,NE,39,1.0,-999.0,61,-99.99,,,-99.99,,2013-07-17 15:42:00,
2013-07-17 10:52:00,89.0,73.0,30.28,East,82,2.0,-999.0,60,-99.99,,,-99.99,,2013-07-17 15:52:00,
2013-07-17 11:02:00,90.0,74.0,30.27,ENE,59,0.0,-999.0,59,-99.99,,,-99.99,,2013-07-17 16:02:00,
2013-07-17 11:11:00,90.0,72.0,30.28,East,87,0.0,-999.0,55,-99.99,,,-99.99,,2013-07-17 16:11:00,
2013-07-17 11:22:00,90.0,72.0,30.28,ENE,64,0.0,-999.0,56,-99.99,,,-99.99,,2013-07-17 16:22:00,
2013-07-17 11:33:00,91.0,74.0,30.27,East,81,1.0,-999.0,57,-99.99,,,-99.99,,2013-07-17 16:33:00,
2013-07-17 11:42:00,90.0,73.0,30.27,East,92,1.0,-999.0,57,-99.99,,,-99.99,,2013-07-17 16:42:00,
2013-07-17 11:52:00,91.0,73.0,30.27,NE,53,1.0,-999.0,56,-99.99,,,-99.99,,2013-07-17 16:52:00,
2013-07-17 12:02:00,91.0,71.0,30.27,ENE,75,1.0,-999.0,53,-99.99,,,-99.99,,2013-07-17 17:02:00,
2013-07-17 12:11:00,91.0,73.0,30.27,NE,51,1.0,-999.0,56,-99.99,,,-99.99,,2013-07-17 17:11:00,
2013-07-17 12:22:00,92.0,72.0,30.26,NE,51,1.0,-999.0,53,-99.99,,,-99.99,,2013-07-17 17:22:00,
2013-07-17 12:32:00,92.0,72.0,30.26,NE,45,2.0,-999.0,53,-99.99,,,-99.99,,2013-07-17 17:32:00,
2013-07-17 12:43:00,92.0,72.0,30.26,ESE,116,1.0,-999.0,53,-99.99,,,-99.99,,2013-07-17 17:43:00,
2013-07-17 12:52:00,92.0,72.0,30.26,ENE,76,2.0,-999.0,53,-99.99,,,-99.99,,2013-07-17 17:52:00,
2013-07-17 13:01:00,92.0,72.0,30.26,SE,129,2.0,-999.0,53,-99.99,,,-99.99,,2013-07-17 18:01:00,
2013-07-17 13:11:00,92.0,71.0,30.25,East,92,3.0,-999.0,51,-99.99,,,-99.99,,2013-07-17 18:11:00,
2013-07-17 13:22:00,92.0,72.0,30.25,East,87,1.0,-999.0,53,-99.99,,,-99.99,,2013-07-17 18:22:00,
2013-07-17 13:32:00,92.0,71.0,30.24,ESE,104,2.0,-999.0,51,-99.99,,,-99.99,,2013-07-17 18:32:00,
2013-07-17 13:43:00,92.0,71.0,30.24,East,85,3.0,-999.0,51,-99.99,,,-99.99,,2013-07-17 18:43:00,
2013-07-17 13:52:00,93.0,72.0,30.24,NE,42,1.0,-999.0,51,-99.99,,,-99.99,,2013-07-17 18:52:00,
2013-07-17 14:01:00,93.0,72.0,30.24,ENE,65,2.0,-999.0,51,-99.99,,,-99.99,,2013-07-17 19:01:00,
2013-07-17 14:11:00,93.0,72.0,30.24,East,92,0.0,-999.0,50,-99.99,,,-99.99,,2013-07-17 19:11:00,
2013-07-17 14:22:00,94.0,72.0,30.23,NNW,346,0.0,-999.0,49,-99.99,,,-99.99,,2013-07-17 19:22:00,
2013-07-17 14:32:00,93.0,71.0,30.23,NE,44,1.0,-999.0,49,-99.99,,,-99.99,,2013-07-17 19:32:00,
2013-07-17 14:43:00,93.0,72.0,30.23,NE,53,1.0,-999.0,50,-99.99,,,-99.99,,2013-07-17 19:43:00,
2013-07-17 14:53:00,94.0,72.0,30.22,ENE,68,1.0,-999.0,49,-99.99,,,-99.99,,2013-07-17 19:53:00,
2013-07-17 15:02:00,94.0,72.0,30.22,ESE,117,1.0,-999.0,49,-99.99,,,-99.99,,2013-07-17 20:02:00,
2013-07-17 15:11:00,94.0,72.0,30.22,ENE,57,3.0,-999.0,49,-99.99,,,-99.99,,2013-07-17 20:11:00,
2013-07-17 15:22:00,94.0,71.0,30.21,ENE,67,2.0,-999.0,47,-99.99,,,-99.99,,2013-07-17 20:22:00,
2013-07-17 15:33:00,94.0,69.0,30.20,ENE,78,1.0,-999.0,45,-99.99,,,-99.99,,2013-07-17 20:33:00,
2013-07-17 15:43:00,94.0,70.0,30.20,ENE,65,1.0,-999.0,46,-99.99,,,-99.99,,2013-07-17 20:43:00,
2013-07-17 15:52:00,95.0,70.0,30.20,ESE,105,1.0,-999.0,45,-99.99,,,-99.99,,2013-07-17 20:52:00,
2013-07-17 16:02:00,94.0,71.0,30.19,East,99,1.0,-999.0,47,-99.99,,,-99.99,,2013-07-17 21:02:00,
2013-07-17 16:12:00,94.0,71.0,30.19,East,94,1.0,-999.0,47,-99.99,,,-99.99,,2013-07-17 21:12:00,
2013-07-17 16:22:00,94.0,70.0,30.19,East,83,1.0,-999.0,46,-99.99,,,-99.99,,2013-07-17 21:22:00,
2013-07-17 16:32:00,95.0,72.0,30.19,East,84,1.0,-999.0,47,-99.99,,,-99.99,,2013-07-17 21:32:00,
2013-07-17 16:42:00,94.0,70.0,30.18,ENE,77,1.0,-999.0,46,-99.99,,,-99.99,,2013-07-17 21:42:00,
2013-07-17 16:52:00,95.0,71.0,30.18,ESE,112,0.0,-999.0,46,-99.99,,,-99.99,,2013-07-17 21:52:00,
2013-07-17 17:01:00,95.0,70.0,30.17,NNE,13,0.0,-999.0,44,-99.99,,,-99.99,,2013-07-17 22:01:00,
2013-07-17 17:11:00,96.0,71.0,30.17,ENE,67,0.0,-999.0,45,-99.99,,,-99.99,,2013-07-17 22:11:00,
2013-07-17 17:22:00,94.0,71.0,30.16,ESE,109,0.0,-999.0,47,-99.99,,,-99.99,,2013-07-17 22:22:00,
2013-07-17 17:32:00,94.0,71.0,30.16,ENE,74,1.0,-999.0,47,-99.99,,,-99.99,,2013-07-17 22:32:00,
2013-07-17 17:43:00,94.0,71.0,30.16,NE,55,0.0,-999.0,48,-99.99,,,-99.99,,2013-07-17 22:43:00,
2013-07-17 17:53:00,94.0,71.0,30.16,East,86,0.0,-999.0,47,-99.99,,,-99.99,,2013-07-17 22:53:00,
2013-07-17 18:02:00,95.0,71.0,30.15,ENE,58,0.0,-999.0,46,-99.99,,,-99.99,,2013-07-17 23:02:00,
2013-07-17 18:11:00,95.0,71.0,30.15,East,80,0.0,-999.0,46,-99.99,,,-99.99,,2013-07-17 23:11:00,
2013-07-17 18:22:00,95.0,71.0,30.14,NE,44,0.0,-999.0,46,-99.99,,,-99.99,,2013-07-17 23:22:00,
2013-07-17 18:32:00,95.0,73.0,30.15,East,85,2.0,-999.0,50,-99.99,,,-99.99,,2013-07-17 23:32:00,
2013-07-17 18:43:00,94.0,73.0,30.15,ENE,76,1.0,-999.0,51,-99.99,,,-99.99,,2013-07-17 23:43:00,
2013-07-17 18:52:00,93.0,72.0,30.15,ENE,76,1.0,-999.0,50,-99.99,,,-99.99,,2013-07-17 23:52:00,
2013-07-17 19:01:00,93.0,72.0,30.14,ENE,77,2.0,-999.0,50,-99.99,,,-99.99,,2013-07-18 00:01:00,
2013-07-17 19:11:00,93.0,72.0,30.14,East,91,0.0,-999.0,50,-99.99,,,-99.99,,2013-07-18 00:11:00,
2013-07-17 19:22:00,92.0,72.0,30.15,East,80,0.0,-999.0,52,-99.99,,,-99.99,,2013-07-18 00:22:00,
2013-07-17 19:33:00,92.0,72.0,30.15,ENE,67,0.0,-999.0,52,-99.99,,,-99.99,,2013-07-18 00:33:00,
2013-07-17 19:43:00,92.0,73.0,30.15,ENE,76,0.0,-999.0,54,-99.99,,,-99.99,,2013-07-18 00:43:00,
2013-07-17 19:52:00,92.0,73.0,30.15,East,99,0.0,-999.0,54,-99.99,,,-99.99,,2013-07-18 00:52:00,
2013-07-17 20:01:00,91.0,72.0,30.15,East,81,0.0,-999.0,54,-99.99,,,-99.99,,2013-07-18 01:01:00,
2013-07-17 20:11:00,91.0,73.0,30.15,East,88,0.0,-999.0,55,-99.99,,,-99.99,,2013-07-18 01:11:00,